createdAt,value
2022-09-26T00:01:20.642Z,0.57
2022-09-26T00:03:50.696Z,0.90
2022-09-26T00:06:18.311Z,0.60
2022-09-26T00:08:46.631Z,0.60
2022-09-26T00:11:17.454Z,0.70
2022-09-26T00:13:44.268Z,0.60
2022-09-26T00:16:13.068Z,0.63
2022-09-26T00:18:40.244Z,0.60
2022-09-26T00:21:13.219Z,0.50
2022-09-26T00:23:41.979Z,0.87
2022-09-26T00:26:09.589Z,0.83
2022-09-26T00:28:36.499Z,0.60
2022-09-26T00:31:09.379Z,0.70
2022-09-26T00:33:36.230Z,0.70
2022-09-26T00:36:06.665Z,0.83
2022-09-26T00:38:33.963Z,0.63
2022-09-26T00:41:01.939Z,0.40
2022-09-26T00:43:44.039Z,0.53
2022-09-26T00:46:27.431Z,0.40
2022-09-26T00:49:19.102Z,0.60
2022-09-26T00:51:53.192Z,0.67
2022-09-26T00:54:20.370Z,0.40
2022-09-26T00:56:50.888Z,0.40
2022-09-26T00:59:33.022Z,0.60
2022-09-26T01:02:02.145Z,0.40
2022-09-26T01:04:32.747Z,0.70
2022-09-26T01:07:06.246Z,0.37
2022-09-26T01:09:33.311Z,0.37
2022-09-26T01:12:03.330Z,0.47
2022-09-26T01:14:32.133Z,0.50
2022-09-26T01:16:59.473Z,0.43
2022-09-26T01:20:06.162Z,0.43
2022-09-26T01:22:51.338Z,0.73
2022-09-26T01:25:32.632Z,0.37
2022-09-26T01:28:26.822Z,0.63
2022-09-26T01:31:02.334Z,0.60
2022-09-26T01:33:41.700Z,0.60
2022-09-26T01:36:11.408Z,0.60
2022-09-26T01:39:09.874Z,0.80
2022-09-26T01:41:55.144Z,0.60
2022-09-26T01:44:51.864Z,0.73
2022-09-26T01:47:40.874Z,0.60
2022-09-26T01:50:25.942Z,0.70
2022-09-26T01:53:25.106Z,0.80
2022-09-26T01:56:05.484Z,0.90
2022-09-26T01:58:38.140Z,0.97
2022-09-26T02:01:11.028Z,1.00
2022-09-26T02:03:45.641Z,0.93
2022-09-26T02:06:37.376Z,0.90
2022-09-26T02:09:27.946Z,0.70
2022-09-26T02:12:01.831Z,0.80
2022-09-26T02:14:35.835Z,0.50
2022-09-26T02:17:10.975Z,0.80
2022-09-26T02:19:43.703Z,0.63
2022-09-26T02:22:10.499Z,0.70
2022-09-26T02:24:38.882Z,0.90
2022-09-26T02:27:06.837Z,1.00
2022-09-26T02:29:34.312Z,0.83
2022-09-26T02:32:13.015Z,0.67
2022-09-26T02:34:42.147Z,0.70
2022-09-26T02:37:10.304Z,1.00
2022-09-26T02:39:37.670Z,1.40
2022-09-26T02:42:44.508Z,1.10
2022-09-26T02:45:59.102Z,1.20
2022-09-26T02:48:38.827Z,0.90
2022-09-26T02:51:39.976Z,1.10
2022-09-26T02:54:21.597Z,1.07
2022-09-26T02:57:22.653Z,0.90
2022-09-26T02:59:57.683Z,0.77
2022-09-26T03:02:39.238Z,1.30
2022-09-26T03:05:29.314Z,1.20
2022-09-26T03:08:09.484Z,1.10
2022-09-26T03:10:38.094Z,1.00
2022-09-26T03:13:12.094Z,0.93
2022-09-26T03:15:42.040Z,0.90
2022-09-26T03:18:14.563Z,1.07
2022-09-26T03:20:41.639Z,1.00
2022-09-26T03:23:08.914Z,1.00
2022-09-26T03:25:36.242Z,2.87
2022-09-26T03:28:05.802Z,1.67
2022-09-26T03:30:33.561Z,1.00
2022-09-26T03:33:19.166Z,1.13
2022-09-26T03:35:47.041Z,1.00
2022-09-26T03:38:14.730Z,1.27
2022-09-26T03:40:48.606Z,1.17
2022-09-26T03:43:34.150Z,1.10
2022-09-26T03:46:06.339Z,1.03
2022-09-26T03:48:34.652Z,1.00
2022-09-26T03:51:09.919Z,1.17
2022-09-26T03:53:39.869Z,1.13
2022-09-26T03:56:15.133Z,1.20
2022-09-26T03:58:43.581Z,1.00
2022-09-26T04:01:19.533Z,1.20
2022-09-26T04:03:50.581Z,1.50
2022-09-26T04:06:22.038Z,1.30
2022-09-26T04:08:52.285Z,1.00
2022-09-26T04:11:22.050Z,1.30
2022-09-26T04:13:52.802Z,1.10
2022-09-26T04:16:23.993Z,1.23
2022-09-26T04:18:57.574Z,1.30
2022-09-26T04:21:28.665Z,1.07
2022-09-26T04:23:56.277Z,1.03
2022-09-26T04:26:24.815Z,1.10
2022-09-26T04:28:54.958Z,0.90
2022-09-26T04:31:24.980Z,1.07
2022-09-26T04:33:58.526Z,0.90
2022-09-26T04:36:25.366Z,1.33
2022-09-26T04:38:52.205Z,0.83
2022-09-26T04:41:21.982Z,1.00
2022-09-26T04:43:49.767Z,1.20
2022-09-26T04:46:26.876Z,1.20
2022-09-26T04:48:58.559Z,1.07
2022-09-26T04:51:28.253Z,1.10
2022-09-26T04:53:55.762Z,1.10
2022-09-26T04:56:27.089Z,1.10
2022-09-26T04:58:56.670Z,0.90
2022-09-26T05:01:27.152Z,1.13
2022-09-26T05:04:09.986Z,1.00
2022-09-26T05:06:37.123Z,1.30
2022-09-26T05:09:06.054Z,1.40
2022-09-26T05:11:57.401Z,1.97
2022-09-26T05:14:25.039Z,1.60
2022-09-26T05:16:51.971Z,1.47
2022-09-26T05:19:19.149Z,1.30
2022-09-26T05:22:04.674Z,1.40
2022-09-26T05:24:50.857Z,1.23
2022-09-26T05:27:19.238Z,1.20
2022-09-26T05:29:46.175Z,1.37
2022-09-26T05:32:14.046Z,1.80
2022-09-26T05:34:41.263Z,1.60
2022-09-26T05:37:11.901Z,1.20
2022-09-26T05:39:57.710Z,1.40
2022-09-26T05:42:24.735Z,1.40
2022-09-26T05:44:53.184Z,1.43
2022-09-26T05:47:21.895Z,1.40
2022-09-26T05:49:48.986Z,1.63
2022-09-26T05:52:19.009Z,1.70
2022-09-26T05:54:46.377Z,1.40
2022-09-26T05:57:52.948Z,1.10
2022-09-26T06:00:22.190Z,1.60
2022-09-26T06:02:58.364Z,1.80
2022-09-26T06:05:42.530Z,1.83
2022-09-26T06:08:17.430Z,1.93
2022-09-26T06:11:10.466Z,1.70
2022-09-26T06:13:37.477Z,1.60
2022-09-26T06:16:07.287Z,1.60
2022-09-26T06:18:38.664Z,1.50
2022-09-26T06:21:07.667Z,1.20
2022-09-26T06:23:34.773Z,1.70
2022-09-26T06:26:05.665Z,1.60
2022-09-26T06:28:32.634Z,1.20
2022-09-26T06:30:59.419Z,1.53
2022-09-26T06:33:48.945Z,1.40
2022-09-26T06:36:25.112Z,1.43
2022-09-26T06:38:54.278Z,1.50
2022-09-26T06:41:21.706Z,1.37
2022-09-26T06:43:49.138Z,1.30
2022-09-26T06:46:33.811Z,1.40
2022-09-26T06:49:13.013Z,1.37
2022-09-26T06:51:42.956Z,1.47
2022-09-26T06:54:10.501Z,1.47
2022-09-26T06:56:37.593Z,1.47
2022-09-26T06:59:06.002Z,1.80
2022-09-26T07:01:35.129Z,1.57
2022-09-26T07:04:36.111Z,2.13
2022-09-26T07:07:25.776Z,1.77
2022-09-26T07:09:54.580Z,1.93
2022-09-26T07:12:47.158Z,1.50
2022-09-26T07:15:18.427Z,1.53
2022-09-26T07:17:48.036Z,1.47
2022-09-26T07:20:40.372Z,1.40
2022-09-26T07:23:25.643Z,1.53
2022-09-26T07:25:53.330Z,1.40
2022-09-26T07:28:20.159Z,1.60
2022-09-26T07:30:49.047Z,1.50
2022-09-26T07:33:31.650Z,1.27
2022-09-26T07:36:05.458Z,1.30
2022-09-26T07:38:32.954Z,1.40
2022-09-26T07:41:01.205Z,2.07
2022-09-26T07:44:19.279Z,1.70
2022-09-26T07:46:37.756Z,1.33
2022-09-26T07:49:23.000Z,1.40
2022-09-26T07:52:08.783Z,1.50
2022-09-26T07:54:50.443Z,1.33
2022-09-26T07:57:49.656Z,1.30
2022-09-26T08:00:34.401Z,1.73
2022-09-26T08:03:14.724Z,1.50
2022-09-26T08:05:43.312Z,1.30
2022-09-26T08:08:10.107Z,1.47
2022-09-26T08:11:03.479Z,1.60
2022-09-26T08:13:36.853Z,1.43
2022-09-26T08:16:25.925Z,1.37
2022-09-26T08:18:56.193Z,1.10
2022-09-26T08:21:24.959Z,1.20
2022-09-26T08:23:55.910Z,1.40
2022-09-26T08:26:32.006Z,1.10
2022-09-26T08:29:19.793Z,1.13
2022-09-26T08:31:50.438Z,1.20
2022-09-26T08:34:22.667Z,1.33
2022-09-26T08:37:14.854Z,1.20
2022-09-26T08:40:07.927Z,1.20
2022-09-26T08:43:06.964Z,1.30
2022-09-26T08:46:25.742Z,1.40
2022-09-26T08:49:29.472Z,1.00
2022-09-26T08:52:00.979Z,1.17
2022-09-26T08:54:36.819Z,1.10
2022-09-26T08:57:34.077Z,0.97
2022-09-26T09:00:10.283Z,1.00
2022-09-26T09:03:16.187Z,1.40
2022-09-26T09:05:48.838Z,1.13
2022-09-26T09:08:23.529Z,1.30
2022-09-26T09:11:16.576Z,1.20
2022-09-26T09:13:55.565Z,1.60
2022-09-26T09:16:46.877Z,1.67
2022-09-26T09:19:41.768Z,1.20
2022-09-26T09:22:59.892Z,1.63
2022-09-26T09:25:47.342Z,1.60
2022-09-26T09:28:23.572Z,1.00
2022-09-26T09:30:57.255Z,1.30
2022-09-26T09:34:00.667Z,1.50
2022-09-26T09:36:59.048Z,1.20
2022-09-26T09:39:50.658Z,1.53
2022-09-26T09:42:48.485Z,1.73
2022-09-26T09:45:18.749Z,1.50
2022-09-26T09:47:46.151Z,1.13
2022-09-26T09:50:44.486Z,1.47
2022-09-26T09:53:38.909Z,1.73
2022-09-26T09:56:24.554Z,1.50
2022-09-26T09:59:07.033Z,1.40
2022-09-26T10:01:58.930Z,1.37
2022-09-26T10:04:44.079Z,1.30
2022-09-26T10:07:12.406Z,1.20
2022-09-26T10:09:46.292Z,1.20
2022-09-26T10:12:35.481Z,1.07
2022-09-26T10:15:32.433Z,1.17
2022-09-26T10:18:24.734Z,1.30
2022-09-26T10:21:19.010Z,1.30
2022-09-26T10:23:49.534Z,0.97
2022-09-26T10:26:35.330Z,1.50
2022-09-26T10:29:26.013Z,1.40
2022-09-26T10:32:00.593Z,1.20
2022-09-26T10:34:30.952Z,1.60
2022-09-26T10:37:21.394Z,1.60
2022-09-26T10:40:12.488Z,1.50
2022-09-26T10:42:40.618Z,1.63
2022-09-26T10:45:16.002Z,1.80
2022-09-26T10:48:05.656Z,1.30
2022-09-26T10:51:02.091Z,1.43
2022-09-26T10:53:40.175Z,1.30
2022-09-26T10:56:15.223Z,1.60
2022-09-26T10:58:46.543Z,1.60
2022-09-26T11:01:30.645Z,1.87
2022-09-26T11:04:12.117Z,1.93
2022-09-26T11:07:27.396Z,1.80
2022-09-26T11:10:14.847Z,1.80
2022-09-26T11:13:16.275Z,1.30
2022-09-26T11:16:12.937Z,1.30
2022-09-26T11:18:44.919Z,1.80
2022-09-26T11:21:29.505Z,1.40
2022-09-26T11:24:05.174Z,1.40
2022-09-26T11:26:38.786Z,1.37
2022-09-26T11:29:41.989Z,1.03
2022-09-26T11:32:28.366Z,1.33
2022-09-26T11:35:03.232Z,1.17
2022-09-26T11:38:27.281Z,1.17
2022-09-26T11:41:38.838Z,1.00
2022-09-26T11:44:34.752Z,0.80
2022-09-26T11:47:37.049Z,0.97
2022-09-26T11:50:23.925Z,1.10
2022-09-26T11:53:26.873Z,1.30
2022-09-26T11:56:07.980Z,1.03
2022-09-26T11:58:50.302Z,1.40
2022-09-26T12:01:35.526Z,1.20
2022-09-26T12:04:54.333Z,1.17
2022-09-26T12:07:38.130Z,1.33
2022-09-26T12:10:25.402Z,1.27
2022-09-26T12:13:14.294Z,1.30
2022-09-26T12:16:03.132Z,1.83
2022-09-26T12:18:43.643Z,2.57
2022-09-26T12:22:04.642Z,2.07
2022-09-26T12:25:00.635Z,1.50
2022-09-26T12:27:43.513Z,1.80
2022-09-26T12:30:15.838Z,1.43
2022-09-26T12:33:04.636Z,2.03
2022-09-26T12:35:45.373Z,1.50
2022-09-26T12:38:37.184Z,2.33
2022-09-26T12:41:07.016Z,1.70
2022-09-26T12:43:46.433Z,1.60
2022-09-26T12:46:22.569Z,2.00
2022-09-26T12:48:59.223Z,1.40
2022-09-26T12:51:41.218Z,1.67
2022-09-26T12:54:34.410Z,1.47
2022-09-26T12:57:38.530Z,1.33
2022-09-26T13:00:10.525Z,0.83
2022-09-26T13:02:56.035Z,0.93
2022-09-26T13:05:54.980Z,1.10
2022-09-26T13:08:24.992Z,0.73
2022-09-26T13:11:04.154Z,0.90
2022-09-26T13:13:33.574Z,1.80
2022-09-26T13:16:04.180Z,4.00
2022-09-26T13:18:40.023Z,1.90
2022-09-26T13:21:12.266Z,1.00
2022-09-26T13:23:48.702Z,0.90
2022-09-26T13:26:26.228Z,1.17
2022-09-26T13:29:17.161Z,1.60
2022-09-26T13:31:55.431Z,0.77
2022-09-26T13:34:38.121Z,0.80
2022-09-26T13:37:14.884Z,0.63
2022-09-26T13:40:03.008Z,0.60
2022-09-26T13:42:44.365Z,0.50
2022-09-26T13:45:29.300Z,0.70
2022-09-26T13:48:27.654Z,0.63
2022-09-26T13:51:10.735Z,0.57
2022-09-26T13:53:56.103Z,1.03
2022-09-26T13:56:41.537Z,0.93
2022-09-26T13:59:11.356Z,1.30
2022-09-26T14:01:42.523Z,0.90
2022-09-26T14:04:37.323Z,1.07
2022-09-26T14:07:28.763Z,0.90
2022-09-26T14:10:05.210Z,1.43
2022-09-26T14:12:51.152Z,1.80
2022-09-26T14:15:40.766Z,1.33
2022-09-26T14:18:12.572Z,1.77
2022-09-26T14:21:16.201Z,1.07
2022-09-26T14:23:48.858Z,1.37
2022-09-26T14:26:21.308Z,1.23
2022-09-26T14:28:55.910Z,1.43
2022-09-26T14:31:26.213Z,1.27
2022-09-26T14:34:27.662Z,1.33
2022-09-26T14:36:58.568Z,1.40
2022-09-26T14:39:33.982Z,1.30
2022-09-26T14:42:33.953Z,1.03
2022-09-26T14:45:18.796Z,2.00
2022-09-26T14:48:01.353Z,1.20
2022-09-26T14:50:36.791Z,1.10
2022-09-26T14:53:19.086Z,1.50
2022-09-26T14:56:06.185Z,1.50
2022-09-26T14:58:40.064Z,1.10
2022-09-26T15:01:18.062Z,0.80
2022-09-26T15:04:04.962Z,1.20
2022-09-26T15:06:43.775Z,0.90
2022-09-26T15:09:18.529Z,0.90
2022-09-26T15:11:51.496Z,0.57
2022-09-26T15:15:00.048Z,0.90
2022-09-26T15:17:35.103Z,0.47
2022-09-26T15:20:08.030Z,0.57
2022-09-26T15:22:35.480Z,0.93
2022-09-26T15:25:22.942Z,0.90
2022-09-26T15:27:54.142Z,1.10
2022-09-26T15:30:32.462Z,0.53
2022-09-26T15:33:04.159Z,0.60
2022-09-26T15:35:32.468Z,0.67
2022-09-26T15:38:01.601Z,0.70
2022-09-26T15:40:32.140Z,0.60
2022-09-26T15:43:09.821Z,0.40
2022-09-26T15:45:58.494Z,0.40
2022-09-26T15:48:25.711Z,0.50
2022-09-26T15:51:20.350Z,0.47
2022-09-26T15:53:55.942Z,0.73
2022-09-26T15:56:28.314Z,1.40
2022-09-26T15:59:01.306Z,1.77
2022-09-26T16:01:30.879Z,0.70
2022-09-26T16:04:02.645Z,0.80
2022-09-26T16:06:39.968Z,0.73
2022-09-26T16:09:32.443Z,0.73
2022-09-26T16:12:05.743Z,0.70
2022-09-26T16:14:41.348Z,0.50
2022-09-26T16:17:23.792Z,0.50
2022-09-26T16:19:58.903Z,0.63
2022-09-26T16:22:39.317Z,0.50
2022-09-26T16:25:52.597Z,0.60
2022-09-26T16:28:22.828Z,0.40
2022-09-26T16:30:58.757Z,0.60
2022-09-26T16:33:34.394Z,0.70
2022-09-26T16:36:15.158Z,0.30
2022-09-26T16:38:42.231Z,0.97
2022-09-26T16:41:48.979Z,1.13
2022-09-26T16:44:27.399Z,1.20
2022-09-26T16:46:59.113Z,1.10
2022-09-26T16:49:48.417Z,1.00
2022-09-26T16:52:34.872Z,0.73
2022-09-26T16:55:06.115Z,1.00
2022-09-26T16:57:38.801Z,0.70
2022-09-26T17:00:34.389Z,0.80
2022-09-26T17:03:02.719Z,0.70
2022-09-26T17:05:29.877Z,0.83
2022-09-26T17:07:57.634Z,0.73
2022-09-26T17:10:25.554Z,1.00
2022-09-26T17:12:53.349Z,0.87
2022-09-26T17:15:27.392Z,0.90
2022-09-26T17:17:55.121Z,1.77
2022-09-26T17:20:22.468Z,1.17
2022-09-26T17:22:49.919Z,1.17
2022-09-26T17:25:18.319Z,1.10
2022-09-26T17:27:50.075Z,1.30
2022-09-26T17:30:19.466Z,0.77
2022-09-26T17:32:52.458Z,1.10
2022-09-26T17:35:28.170Z,1.30
2022-09-26T17:37:55.942Z,1.00
2022-09-26T17:40:26.747Z,1.03
2022-09-26T17:42:55.722Z,1.00
2022-09-26T17:45:30.554Z,0.80
2022-09-26T17:48:02.447Z,0.60
2022-09-26T17:50:31.709Z,0.60
2022-09-26T17:53:02.414Z,0.33
2022-09-26T17:55:31.028Z,0.53
2022-09-26T17:57:58.508Z,0.30
2022-09-26T18:00:28.182Z,0.30
2022-09-26T18:02:59.724Z,0.30
2022-09-26T18:05:36.843Z,0.50
2022-09-26T18:08:14.966Z,0.50
2022-09-26T18:10:48.203Z,0.50
2022-09-26T18:13:25.214Z,0.40
2022-09-26T18:15:57.955Z,0.37
2022-09-26T18:18:28.596Z,0.80
2022-09-26T18:20:57.468Z,1.80
2022-09-26T18:23:35.718Z,1.13
2022-09-26T18:26:03.095Z,0.63
2022-09-26T18:28:30.505Z,3.03
2022-09-26T18:31:00.821Z,1.60
2022-09-26T18:33:29.098Z,0.40
2022-09-26T18:35:57.922Z,0.40
2022-09-26T18:38:25.122Z,0.43
2022-09-26T18:40:58.844Z,0.30
2022-09-26T18:43:39.071Z,0.50
2022-09-26T18:46:13.402Z,0.60
2022-09-26T18:48:41.859Z,0.63
2022-09-26T18:51:10.805Z,0.50
2022-09-26T18:53:40.168Z,0.50
2022-09-26T18:56:26.918Z,0.47
2022-09-26T18:58:54.026Z,0.60
2022-09-26T19:01:23.941Z,0.60
2022-09-26T19:03:51.597Z,0.60
2022-09-26T19:06:23.256Z,0.57
2022-09-26T19:08:56.862Z,0.60
2022-09-26T19:11:25.469Z,0.73
2022-09-26T19:13:55.537Z,1.00
2022-09-26T19:16:23.910Z,0.83
2022-09-26T19:18:51.688Z,0.70
2022-09-26T19:21:53.461Z,0.57
2022-09-26T19:24:31.840Z,0.70
2022-09-26T19:27:06.288Z,0.40
2022-09-26T19:29:45.034Z,0.57
2022-09-26T19:32:20.703Z,0.70
2022-09-26T19:34:55.602Z,0.40
2022-09-26T19:37:23.099Z,0.50
2022-09-26T19:39:50.201Z,0.30
2022-09-26T19:42:17.325Z,0.40
2022-09-26T19:44:44.267Z,0.40
2022-09-26T19:47:23.662Z,1.00
2022-09-26T19:49:52.922Z,0.80
2022-09-26T19:52:20.882Z,0.53
2022-09-26T19:54:48.933Z,0.60
2022-09-26T19:57:17.645Z,0.50
2022-09-26T19:59:45.795Z,0.60
2022-09-26T20:02:16.879Z,0.70
2022-09-26T20:04:44.907Z,0.40
2022-09-26T20:07:17.420Z,0.50
2022-09-26T20:09:44.780Z,0.50
2022-09-26T20:12:12.242Z,0.77
2022-09-26T20:14:39.245Z,0.83
2022-09-26T20:17:17.963Z,0.80
2022-09-26T20:19:48.672Z,1.07
2022-09-26T20:22:19.092Z,0.90
2022-09-26T20:24:48.178Z,1.10
2022-09-26T20:27:19.499Z,0.90
2022-09-26T20:30:07.091Z,0.63
2022-09-26T20:32:34.038Z,0.80
2022-09-26T20:35:01.054Z,0.50
2022-09-26T20:37:31.919Z,0.57
2022-09-26T20:40:07.197Z,0.50
2022-09-26T20:42:37.964Z,0.40
2022-09-26T20:45:05.142Z,0.53
2022-09-26T20:47:32.713Z,0.60
2022-09-26T20:50:02.209Z,0.40
2022-09-26T20:52:30.270Z,0.50
2022-09-26T20:54:58.456Z,0.33
2022-09-26T20:57:25.518Z,0.80
2022-09-26T20:59:52.650Z,0.63
2022-09-26T21:02:29.081Z,0.43
2022-09-26T21:04:58.010Z,0.50
2022-09-26T21:07:25.199Z,0.37
2022-09-26T21:09:52.367Z,0.50
2022-09-26T21:12:19.365Z,0.20
2022-09-26T21:14:46.520Z,0.40
2022-09-26T21:17:28.647Z,0.30
2022-09-26T21:19:56.052Z,0.23
2022-09-26T21:23:01.772Z,0.40
2022-09-26T21:25:31.097Z,0.30
2022-09-26T21:28:02.231Z,0.40
2022-09-26T21:30:30.679Z,0.30
2022-09-26T21:32:59.795Z,0.57
2022-09-26T21:35:32.649Z,0.20
2022-09-26T21:38:01.161Z,0.50
2022-09-26T21:40:33.137Z,0.33
2022-09-26T21:43:24.687Z,0.50
2022-09-26T21:45:52.311Z,0.50
2022-09-26T21:48:19.212Z,0.50
2022-09-26T21:50:56.781Z,0.50
2022-09-26T21:53:57.009Z,0.63
2022-09-26T21:56:28.977Z,0.50
2022-09-26T21:58:57.188Z,0.50
2022-09-26T22:01:24.493Z,0.47
2022-09-26T22:03:51.846Z,0.40
2022-09-26T22:06:19.521Z,0.60
2022-09-26T22:08:46.330Z,0.30
2022-09-26T22:11:14.472Z,0.40
2022-09-26T22:13:41.517Z,0.20
2022-09-26T22:16:13.128Z,0.20
2022-09-26T22:18:40.970Z,0.40
2022-09-26T22:21:09.749Z,0.37
2022-09-26T22:23:37.895Z,0.37
2022-09-26T22:26:05.882Z,0.20
2022-09-26T22:28:32.860Z,0.40
2022-09-26T22:31:05.047Z,0.80
2022-09-26T22:33:32.715Z,0.40
2022-09-26T22:35:59.721Z,0.30
2022-09-26T22:38:26.900Z,0.20
2022-09-26T22:41:03.385Z,0.20
2022-09-26T22:43:31.788Z,0.30
2022-09-26T22:46:13.138Z,0.30
2022-09-26T22:48:42.554Z,0.13
2022-09-26T22:51:10.142Z,0.30
2022-09-26T22:53:39.122Z,0.40
2022-09-26T22:56:08.256Z,0.30
2022-09-26T22:58:39.744Z,0.30
2022-09-26T23:01:09.094Z,0.60
2022-09-26T23:03:36.503Z,0.33
2022-09-26T23:06:04.596Z,0.67
2022-09-26T23:08:35.765Z,0.20
2022-09-26T23:11:03.869Z,0.13
2022-09-26T23:13:32.641Z,0.20
2022-09-26T23:16:08.017Z,0.10
2022-09-26T23:18:36.064Z,0.20
2022-09-26T23:21:14.942Z,0.30
2022-09-26T23:23:43.950Z,0.13
2022-09-26T23:26:24.628Z,0.20
2022-09-26T23:28:53.174Z,0.33
2022-09-26T23:31:20.709Z,0.50
2022-09-26T23:33:47.578Z,0.20
2022-09-26T23:36:14.454Z,0.40
2022-09-26T23:38:42.192Z,0.40
2022-09-26T23:41:11.000Z,0.40
2022-09-26T23:43:38.674Z,0.23
2022-09-26T23:46:06.463Z,0.23
2022-09-26T23:48:33.382Z,0.30
2022-09-26T23:51:00.649Z,0.17
2022-09-26T23:53:27.478Z,0.20
2022-09-26T23:56:03.648Z,0.50
2022-09-26T23:58:30.684Z,0.20
